< < Back
Terminal Aerodrome Forecast


Current Version              Previous Versions:   1  2  3  4  5  6  7  8  9  

Terminal Aerodrome Forecast

234
FTUS44 KMOB 220500
TAFPNS
TAF
KPNS 220538Z 2206/2306 25005KT P6SM SCT250
     FM221200 34005KT P6SM SCT030
     FM221900 21008KT P6SM VCTS SCT040CB
     FM230000 25003KT P6SM FEW040 SCT250=



Latest METAR

379
SAUS70 KWBC 221100 RRD
MTRPNS
METAR KPNS 221053Z 32006KT 10SM CLR 26/24 A3007 RMK AO2 SLP184
T02560244


USA.gov is the U.S. government's official web portal to all federal, state and local government web resources and services.